createdAt,value
2024-01-05T00:04:57.212Z,0.17
2024-01-05T00:10:00.262Z,0.20
2024-01-05T00:15:03.315Z,1.43
2024-01-05T00:20:10.191Z,0.13
2024-01-05T00:25:13.166Z,0.17
2024-01-05T00:30:16.024Z,0.10
2024-01-05T00:35:18.896Z,0.43
2024-01-05T00:40:21.961Z,0.10
2024-01-05T00:45:25.165Z,0.30
2024-01-05T00:50:30.289Z,0.30
2024-01-05T00:55:33.121Z,0.33
2024-01-05T01:00:36.038Z,0.83
2024-01-05T01:05:40.153Z,0.83
2024-01-05T01:10:43.018Z,0.50
2024-01-05T01:15:45.810Z,1.20
2024-01-05T01:20:48.674Z,0.70
2024-01-05T01:25:51.519Z,0.47
2024-01-05T01:30:54.367Z,0.57
2024-01-05T01:35:57.392Z,0.47
2024-01-05T01:41:00.218Z,0.10
2024-01-05T01:46:03.274Z,1.20
2024-01-05T01:51:06.360Z,1.03
2024-01-05T01:56:12.226Z,0.10
2024-01-05T02:01:15.500Z,0.57
2024-01-05T02:06:18.270Z,0.30
2024-01-05T02:11:21.295Z,0.83
2024-01-05T02:16:23.994Z,1.50
2024-01-05T02:21:51.030Z,0.60
2024-01-05T02:26:54.104Z,0.10
2024-01-05T02:31:57.119Z,0.63
2024-01-05T02:36:59.940Z,0.43
2024-01-05T02:42:02.855Z,0.20
2024-01-05T02:47:05.772Z,0.10
2024-01-05T02:52:13.944Z,0.93
2024-01-05T02:57:17.153Z,0.40
2024-01-05T03:02:19.901Z,0.70
2024-01-05T03:07:22.655Z,0.90
2024-01-05T03:12:25.627Z,1.23
2024-01-05T03:17:28.659Z,0.10
2024-01-05T03:22:32.464Z,1.10
2024-01-05T03:27:35.798Z,0.30
2024-01-05T03:32:38.695Z,0.87
2024-01-05T03:37:41.576Z,1.57
2024-01-05T03:42:44.391Z,0.40
2024-01-05T03:47:47.587Z,0.23
2024-01-05T03:52:50.515Z,0.77
2024-01-05T03:57:53.465Z,0.10
2024-01-05T04:02:56.462Z,0.20
2024-01-05T04:07:59.549Z,0.10
2024-01-05T04:13:02.503Z,0.10
2024-01-05T04:18:05.927Z,0.57
2024-01-05T04:23:08.882Z,0.57
2024-01-05T04:28:11.756Z,0.80
2024-01-05T04:33:14.734Z,0.40
2024-01-05T04:38:17.698Z,0.20
2024-01-05T04:43:20.517Z,1.07
2024-01-05T04:48:23.628Z,0.93
2024-01-05T04:53:26.800Z,1.30
2024-01-05T04:58:29.704Z,0.20
2024-01-05T05:03:33.032Z,0.67
2024-01-05T05:08:35.954Z,0.70
2024-01-05T05:13:39.084Z,1.43
2024-01-05T05:18:42.546Z,1.17
2024-01-05T05:23:45.869Z,3.50
2024-01-05T05:28:48.803Z,1.60
2024-01-05T05:33:51.789Z,1.63
2024-01-05T05:38:54.816Z,0.90
2024-01-05T05:43:57.787Z,0.43
2024-01-05T05:49:00.877Z,1.80
2024-01-05T05:54:04.040Z,0.93
2024-01-05T05:59:07.007Z,0.97
2024-01-05T06:04:09.892Z,0.73
2024-01-05T06:09:14.891Z,0.80
2024-01-05T06:14:19.955Z,1.10
2024-01-05T06:19:22.946Z,1.17
2024-01-05T06:24:26.079Z,1.10
2024-01-05T06:29:29.333Z,0.50
2024-01-05T06:34:32.711Z,0.67
2024-01-05T06:39:35.802Z,0.30
2024-01-05T06:44:38.777Z,1.53
2024-01-05T06:49:42.068Z,0.40
2024-01-05T06:54:45.372Z,2.23
2024-01-05T06:59:48.496Z,2.10
2024-01-05T07:05:02.175Z,0.57
2024-01-05T07:10:11.613Z,0.40
2024-01-05T07:15:15.546Z,0.40
2024-01-05T07:20:28.837Z,1.90
2024-01-05T07:25:31.943Z,1.00
2024-01-05T07:30:35.358Z,0.63
2024-01-05T07:35:58.333Z,0.40
2024-01-05T07:41:01.468Z,4.13
2024-01-05T07:46:05.452Z,0.93
2024-01-05T07:51:12.603Z,1.13
2024-01-05T07:56:18.889Z,1.37
2024-01-05T08:01:22.923Z,1.40
2024-01-05T08:06:26.518Z,1.67
2024-01-05T08:11:29.753Z,0.83
2024-01-05T08:16:32.725Z,0.93
2024-01-05T08:21:37.078Z,0.93
2024-01-05T08:26:40.417Z,1.73
2024-01-05T08:31:45.018Z,0.50
2024-01-05T08:36:48.093Z,0.90
2024-01-05T08:41:51.284Z,0.70
2024-01-05T08:46:55.210Z,2.27
2024-01-05T08:51:58.625Z,2.43
2024-01-05T08:57:02.673Z,1.00
2024-01-05T09:02:06.055Z,1.43
2024-01-05T09:07:09.608Z,1.67
2024-01-05T09:12:13.519Z,2.20
2024-01-05T09:17:18.411Z,0.80
2024-01-05T09:22:24.994Z,1.07
2024-01-05T09:27:28.479Z,0.40
2024-01-05T09:32:32.177Z,0.73
2024-01-05T09:37:34.987Z,1.00
2024-01-05T09:43:06.177Z,1.07
2024-01-05T09:48:36.433Z,1.00
2024-01-05T09:54:03.290Z,1.27
2024-01-05T09:59:27.733Z,0.60
2024-01-05T10:04:50.718Z,1.07
2024-01-05T10:10:14.572Z,1.60
2024-01-05T10:15:58.150Z,1.13
2024-01-05T10:21:24.863Z,2.40
2024-01-05T10:26:47.782Z,2.77
2024-01-05T10:32:28.018Z,0.90
2024-01-05T10:38:04.719Z,3.47
2024-01-05T10:43:27.912Z,0.80
2024-01-05T10:48:51.754Z,0.73
2024-01-05T10:54:15.216Z,0.53
2024-01-05T10:59:41.014Z,0.97
2024-01-05T11:05:11.525Z,0.60
2024-01-05T11:11:09.371Z,1.80
2024-01-05T11:16:48.096Z,0.20
2024-01-05T11:22:18.452Z,0.57
2024-01-05T11:27:49.698Z,0.90
2024-01-05T11:33:43.905Z,2.40
2024-01-05T11:39:07.785Z,0.47
2024-01-05T11:44:37.492Z,1.57
2024-01-05T11:50:00.914Z,1.27
2024-01-05T11:55:43.882Z,0.63
2024-01-05T12:01:18.736Z,0.40
2024-01-05T12:06:45.634Z,0.30
2024-01-05T12:12:19.090Z,0.50
2024-01-05T12:17:42.900Z,0.60
2024-01-05T12:23:06.505Z,0.33
2024-01-05T12:28:31.757Z,0.60
2024-01-05T12:33:57.817Z,0.70
2024-01-05T12:39:21.877Z,1.73
2024-01-05T12:44:48.958Z,1.13
2024-01-05T12:50:30.705Z,0.73
2024-01-05T12:55:54.333Z,0.50
2024-01-05T13:01:26.946Z,1.40
2024-01-05T13:06:50.932Z,0.60
2024-01-05T13:12:14.484Z,0.63
2024-01-05T13:17:37.942Z,0.93
2024-01-05T13:23:01.818Z,0.80
2024-01-05T13:28:26.160Z,1.47
2024-01-05T13:33:52.076Z,1.43
2024-01-05T13:39:18.736Z,1.63
2024-01-05T13:44:43.873Z,1.77
2024-01-05T13:50:27.958Z,1.13
2024-01-05T13:55:58.444Z,2.30
2024-01-05T14:01:27.263Z,0.77
2024-01-05T14:06:50.337Z,1.47
2024-01-05T14:12:13.610Z,1.03
2024-01-05T14:17:40.320Z,1.93
2024-01-05T14:23:08.713Z,2.13
2024-01-05T14:28:32.660Z,2.15
2024-01-05T14:33:56.645Z,0.63
2024-01-05T14:39:20.343Z,1.50
2024-01-05T14:44:43.273Z,1.90
2024-01-05T14:50:09.038Z,1.53
2024-01-05T14:55:34.829Z,1.00
2024-01-05T15:00:57.871Z,1.70
2024-01-05T15:06:25.883Z,1.60
2024-01-05T15:11:51.644Z,0.80
2024-01-05T15:17:14.777Z,1.10
2024-01-05T15:22:37.844Z,1.10
2024-01-05T15:33:41.693Z,2.03
2024-01-05T15:39:07.626Z,2.17
2024-01-05T15:44:30.551Z,1.20
2024-01-05T15:49:53.500Z,2.00
2024-01-05T15:55:20.352Z,1.37
2024-01-05T16:00:45.921Z,1.63
2024-01-05T16:06:12.814Z,1.53
2024-01-05T16:11:36.701Z,2.15
2024-01-05T16:16:59.201Z,0.73
2024-01-05T16:22:22.502Z,1.97
2024-01-05T16:27:45.811Z,1.83
2024-01-05T16:33:23.958Z,1.07
2024-01-05T16:38:54.080Z,1.63
2024-01-05T16:44:21.774Z,1.13
2024-01-05T16:49:44.903Z,1.13
2024-01-05T16:55:08.244Z,1.53
2024-01-05T17:00:31.486Z,1.30
2024-01-05T17:05:55.241Z,1.50
2024-01-05T17:11:17.962Z,1.73
2024-01-05T17:16:42.397Z,0.87
2024-01-05T17:22:05.621Z,0.97
2024-01-05T17:27:28.705Z,1.37
2024-01-05T17:32:53.327Z,1.80
2024-01-05T17:38:16.968Z,1.47
2024-01-05T17:43:42.636Z,1.40
2024-01-05T17:49:06.282Z,1.33
2024-01-05T17:54:33.575Z,1.57
2024-01-05T18:00:06.256Z,1.90
2024-01-05T18:05:18.115Z,2.70
2024-01-05T18:10:31.924Z,2.10
2024-01-05T18:15:50.862Z,1.47
2024-01-05T18:21:01.866Z,3.20
2024-01-05T18:26:25.502Z,2.57
2024-01-05T18:31:32.994Z,2.77
2024-01-05T18:36:38.042Z,3.23
2024-01-05T18:41:42.307Z,2.47
2024-01-05T18:46:48.191Z,3.00
2024-01-05T18:51:58.470Z,2.90
2024-01-05T18:57:03.473Z,4.33
2024-01-05T19:02:07.965Z,6.10
2024-01-05T19:07:12.326Z,3.10
2024-01-05T19:12:20.752Z,2.80
2024-01-05T19:17:27.259Z,2.07
2024-01-05T19:22:35.366Z,5.07
2024-01-05T19:27:56.765Z,4.07
2024-01-05T19:33:03.121Z,2.40
2024-01-05T19:38:09.324Z,3.90
2024-01-05T19:43:17.608Z,2.38
2024-01-05T19:48:22.185Z,1.00
2024-01-05T19:53:26.932Z,2.03
2024-01-05T19:58:31.297Z,4.87
2024-01-05T20:03:56.035Z,3.20
2024-01-05T20:09:04.402Z,4.70
2024-01-05T20:14:27.048Z,2.00
2024-01-05T20:19:34.999Z,1.90
2024-01-05T20:24:40.307Z,2.17
2024-01-05T20:30:04.421Z,3.07
2024-01-05T20:35:27.395Z,3.73
2024-01-05T20:40:33.273Z,3.47
2024-01-05T20:45:38.029Z,4.67
2024-01-05T20:50:47.663Z,3.17
2024-01-05T20:55:51.876Z,4.77
2024-01-05T21:00:56.696Z,3.53
2024-01-05T21:06:02.797Z,3.13
2024-01-05T21:11:11.241Z,4.73
2024-01-05T21:16:16.451Z,4.30
2024-01-05T21:21:22.708Z,4.27
2024-01-05T21:26:27.710Z,3.23
2024-01-05T21:31:34.999Z,3.42
2024-01-05T21:36:39.424Z,2.33
2024-01-05T21:41:46.895Z,2.00
2024-01-05T21:46:52.660Z,1.87
2024-01-05T21:52:00.259Z,2.73
2024-01-05T21:57:05.572Z,2.20
2024-01-05T22:02:12.930Z,2.73
2024-01-05T22:12:25.804Z,1.80
2024-01-05T22:17:35.688Z,1.97
2024-01-05T22:22:41.218Z,1.90
2024-01-05T22:27:46.785Z,1.40
2024-01-05T22:32:51.515Z,2.17
2024-01-05T22:37:59.240Z,1.27
2024-01-05T22:43:05.373Z,1.25
2024-01-05T22:48:11.600Z,1.10
2024-01-05T22:53:18.251Z,2.13
2024-01-05T22:58:24.532Z,1.55
2024-01-05T23:03:33.271Z,1.67
2024-01-05T23:08:40.866Z,3.23
2024-01-05T23:13:46.566Z,2.53
2024-01-05T23:18:51.124Z,1.03
2024-01-05T23:23:59.472Z,1.83
2024-01-05T23:29:06.812Z,0.93
2024-01-05T23:34:17.089Z,0.60
2024-01-05T23:39:27.924Z,1.00
2024-01-05T23:44:37.217Z,0.70
2024-01-05T23:49:48.259Z,1.30
2024-01-05T23:54:58.696Z,1.20
